Time;durP1;ratioP1;P1;durP2;ratioP2;P2;SDS_P1;SDS_P2;PMS_P1;PMS_P2;Temp;Humidity;BMP_temperature;BMP_pressure;BME280_temperature;BME280_humidity;BME280_pressure;Samples;Min_cycle;Max_cycle;Signal;HPM_P1;HPM_P2
2023/09/11 00:01:15;;;;;;;10.70;7.45;;;;;;;-145.68;95.19;73545.78;10415802;28;20195;-75
2023/09/11 00:06:16;;;;;;;12.55;7.65;;;;;;;-145.68;95.25;73531.78;10396311;28;20667;-75
2023/09/11 00:11:16;;;;;;;11.10;7.45;;;;;;;-145.68;96.59;73537.78;10398508;28;20243;-75
2023/09/11 00:16:16;;;;;;;10.10;8.02;;;;;;;-145.68;97.42;73539.78;10426040;28;20188;-75
2023/09/11 00:21:17;;;;;;;10.45;8.18;;;;;;;-145.68;98.02;73539.78;10429131;28;20672;-75
2023/09/11 00:26:17;;;;;;;10.77;8.13;;;;;;;-145.68;98.12;73535.78;10421657;28;20195;-75
2023/09/11 00:31:22;;;;;;;9.25;7.55;;;;;;;-145.68;98.93;73541.78;10397235;28;20207;-75
2023/09/11 00:36:22;;;;;;;10.43;8.32;;;;;;;-145.68;99.54;73537.78;10395146;28;20260;-74
2023/09/11 00:41:22;;;;;;;10.73;8.23;;;;;;;-145.68;99.34;73521.78;10401320;28;20656;-75
2023/09/11 00:46:23;;;;;;;10.60;7.95;;;;;;;-145.68;99.39;73529.78;10402891;28;20234;-75
2023/09/11 00:51:23;;;;;;;11.45;7.80;;;;;;;-145.68;100.00;73513.78;10395606;28;20215;-74
2023/09/11 00:56:24;;;;;;;15.00;8.93;;;;;;;-145.68;100.00;73511.78;10426756;28;20196;-75
2023/09/11 01:01:24;;;;;;;12.10;8.68;;;;;;;-145.68;100.00;73509.78;10436670;28;20623;-74
2023/09/11 01:06:25;;;;;;;13.45;10.15;;;;;;;-145.68;100.00;73527.78;10434070;28;20195;-75
2023/09/11 01:11:25;;;;;;;12.00;9.23;;;;;;;-145.68;100.00;73523.78;10410522;28;20207;-74
2023/09/11 01:16:52;;;;;;;14.18;8.98;;;;;;;-145.68;100.00;73505.78;10409812;28;20196;-75
2023/09/11 01:22:24;;;;;;;13.43;9.40;;;;;;;-145.68;100.00;73499.78;10429260;28;20238;-75
2023/09/11 01:28:02;;;;;;;10.98;8.73;;;;;;;-145.68;100.00;73491.81;10403895;28;20184;-75
2023/09/11 01:33:02;;;;;;;13.82;10.18;;;;;;;-145.68;100.00;73487.81;10432133;28;20225;-75
2023/09/11 01:38:04;;;;;;;11.38;9.90;;;;;;;-145.68;100.00;73479.81;10404836;28;20574;-75
2023/09/11 01:43:07;;;;;;;13.15;9.52;;;;;;;-145.68;100.00;73467.81;10401555;28;20189;-75
2023/09/11 01:48:08;;;;;;;13.73;9.05;;;;;;;-145.68;100.00;73451.81;10392486;28;20252;-75
2023/09/11 01:53:09;;;;;;;12.18;9.88;;;;;;;-145.68;100.00;73447.81;10389253;28;20308;-76
2023/09/11 01:58:09;;;;;;;13.65;10.10;;;;;;;-145.68;100.00;73453.81;10404443;28;20586;-75
2023/09/11 02:03:10;;;;;;;13.30;9.88;;;;;;;-145.68;100.00;73449.81;10408380;28;20601;-75
2023/09/11 02:08:10;;;;;;;11.57;9.63;;;;;;;-145.68;100.00;73435.84;10432062;28;20219;-75
2023/09/11 02:13:10;;;;;;;12.32;9.05;;;;;;;-145.68;100.00;73431.84;10428065;28;20219;-75
2023/09/11 02:18:11;;;;;;;13.48;10.20;;;;;;;-145.68;100.00;73427.84;10407659;28;20197;-75
2023/09/11 02:23:11;;;;;;;17.05;9.68;;;;;;;-145.68;100.00;73435.84;10400973;28;20181;-75
2023/09/11 02:28:11;;;;;;;13.40;9.70;;;;;;;-145.68;100.00;73437.84;10442071;28;20679;-75
2023/09/11 02:33:12;;;;;;;13.75;10.40;;;;;;;-145.68;100.00;73443.84;10417364;28;20212;-75
2023/09/11 02:38:13;;;;;;;12.93;9.68;;;;;;;-145.68;100.00;73429.84;10424299;28;20197;-75
2023/09/11 02:43:13;;;;;;;13.25;9.43;;;;;;;-145.68;100.00;73427.84;10411670;28;20180;-75
2023/09/11 02:48:13;;;;;;;12.07;10.02;;;;;;;-145.68;100.00;73423.84;10412693;28;20246;-75
2023/09/11 02:53:16;;;;;;;11.00;9.82;;;;;;;-145.68;100.00;73423.84;10430230;28;20746;-75
2023/09/11 02:58:17;;;;;;;11.90;10.20;;;;;;;-145.68;100.00;73435.84;10417360;28;20720;-75
2023/09/11 03:03:17;;;;;;;13.50;9.73;;;;;;;-145.68;100.00;73427.84;10398508;28;20184;-75
2023/09/11 03:08:17;;;;;;;11.77;9.77;;;;;;;-145.68;100.00;73423.84;10426852;28;20711;-75
2023/09/11 03:13:18;;;;;;;14.18;10.13;;;;;;;-145.68;100.00;73419.84;10425824;28;20216;-75
2023/09/11 03:18:20;;;;;;;12.05;10.27;;;;;;;-145.68;100.00;73429.84;10402871;28;20204;-75
2023/09/11 03:23:21;;;;;;;13.45;10.00;;;;;;;-145.68;100.00;73425.84;10410444;28;20189;-75
2023/09/11 03:28:25;;;;;;;13.40;10.52;;;;;;;-145.68;100.00;73429.84;10415472;28;20195;-75
2023/09/11 03:33:26;;;;;;;11.40;10.10;;;;;;;-145.68;100.00;73415.84;10402435;28;20219;-74
2023/09/11 03:38:26;;;;;;;12.13;10.25;;;;;;;-145.68;100.00;73415.84;10432391;28;20188;-75
2023/09/11 03:43:27;;;;;;;16.77;10.48;;;;;;;-145.68;100.00;73415.84;10408280;28;20185;-74
2023/09/11 03:48:27;;;;;;;13.82;10.05;;;;;;;-145.68;100.00;73415.84;10408564;28;20258;-76
2023/09/11 03:53:28;;;;;;;13.90;10.43;;;;;;;-145.68;100.00;73425.84;10398064;28;20708;-75
2023/09/11 03:58:29;;;;;;;15.88;10.55;;;;;;;-145.68;100.00;73429.84;10412403;28;20184;-75
2023/09/11 04:03:30;;;;;;;12.23;9.90;;;;;;;-145.68;100.00;73433.84;10411217;28;20198;-75
2023/09/11 04:08:31;;;;;;;11.82;9.48;;;;;;;-145.68;100.00;73427.84;10410202;28;20184;-75
2023/09/11 04:13:31;;;;;;;11.52;10.00;;;;;;;-145.68;100.00;73421.84;10408969;28;20216;-75
2023/09/11 04:18:32;;;;;;;12.00;10.07;;;;;;;-145.68;100.00;73419.84;10413305;28;20215;-75
2023/09/11 04:23:32;;;;;;;13.13;9.35;;;;;;;-145.68;100.00;73411.84;10433560;28;20176;-74
2023/09/11 04:28:35;;;;;;;10.40;9.38;;;;;;;-145.68;100.00;73405.84;10402850;28;20192;-75
2023/09/11 04:33:36;;;;;;;18.10;9.40;;;;;;;-145.68;100.00;73399.84;10394982;28;20225;-75
2023/09/11 04:38:36;;;;;;;10.75;9.65;;;;;;;-145.68;100.00;73403.84;10394332;28;20193;-75
2023/09/11 04:43:37;;;;;;;13.40;9.98;;;;;;;-145.68;100.00;73405.84;10408197;28;20192;-76
2023/09/11 04:48:37;;;;;;;14.13;9.77;;;;;;;-145.68;100.00;73405.84;10413878;28;20845;-76
2023/09/11 04:53:38;;;;;;;14.65;10.07;;;;;;;-145.68;100.00;73399.84;10415710;28;20212;-76
2023/09/11 04:58:39;;;;;;;11.27;9.73;;;;;;;-145.68;100.00;73397.84;10414817;28;20203;-76
2023/09/11 05:03:40;;;;;;;13.40;10.32;;;;;;;-145.68;100.00;73393.84;10412275;28;20198;-76
2023/09/11 05:08:40;;;;;;;11.27;9.25;;;;;;;-145.68;100.00;73381.88;10411971;28;20188;-76
2023/09/11 05:13:41;;;;;;;13.13;10.13;;;;;;;-145.68;100.00;73375.88;10430306;28;20243;-76
2023/09/11 05:18:41;;;;;;;12.65;10.18;;;;;;;-145.68;100.00;73391.84;10401452;28;20739;-76
2023/09/11 05:23:42;;;;;;;13.18;9.95;;;;;;;-145.68;100.00;73377.88;10392837;28;20614;-75
2023/09/11 05:28:46;;;;;;;10.25;8.73;;;;;;;-145.68;99.83;73339.91;10409716;28;20259;-75
2023/09/11 05:33:46;;;;;;;13.35;9.00;;;;;;;-145.68;97.49;73325.91;10409641;28;20216;-75
2023/09/11 05:38:49;;;;;;;11.93;9.13;;;;;;;-145.68;92.43;73255.94;10410033;28;20188;-76
2023/09/11 05:43:49;;;;;;;9.40;8.18;;;;;;;-145.68;88.81;73221.97;10409270;28;20188;-75
2023/09/11 05:48:50;;;;;;;9.18;8.10;;;;;;;-145.68;85.86;73188.00;10410735;28;20236;-75
2023/09/11 05:53:50;;;;;;;11.15;7.93;;;;;;;-145.68;81.78;73130.03;10412550;28;20585;-76
2023/09/11 05:58:50;;;;;;;9.32;7.20;;;;;;;-145.68;78.16;73096.06;10407866;28;20203;-76
2023/09/11 06:03:51;;;;;;;10.85;7.57;;;;;;;-145.68;73.33;72976.16;10391630;28;20212;-76
2023/09/11 06:08:52;;;;;;;9.88;8.30;;;;;;;-145.68;71.64;72944.16;10408897;28;20600;-75
2023/09/11 06:13:52;;;;;;;9.43;7.47;;;;;;;-145.68;68.16;72870.22;10407440;28;20564;-76
2023/09/11 06:18:53;;;;;;;10.70;7.43;;;;;;;-145.68;66.54;72882.22;10407899;28;20274;-76
2023/09/11 06:23:53;;;;;;;11.63;8.15;;;;;;;-145.68;65.96;72830.25;10408949;28;20215;-76
2023/09/11 06:28:54;;;;;;;10.05;7.78;;;;;;;-145.68;66.26;72800.28;10407359;28;20197;-75
2023/09/11 06:33:54;;;;;;;13.30;7.25;;;;;;;-145.68;64.54;72750.31;10411461;28;20224;-76
2023/09/11 06:38:54;;;;;;;11.00;7.88;;;;;;;-145.68;63.70;72712.34;10392507;28;20223;-76
2023/09/11 06:43:55;;;;;;;10.95;7.32;;;;;;;-145.68;61.65;72646.41;10406782;28;20192;-75
2023/09/11 06:48:55;;;;;;;11.38;7.25;;;;;;;-145.68;60.93;72602.44;10406728;28;20731;-76
2023/09/11 06:53:55;;;;;;;7.35;6.50;;;;;;;-145.68;59.64;72520.50;10406991;28;20586;-76
2023/09/11 06:58:56;;;;;;;9.27;7.22;;;;;;;-145.68;58.08;72494.53;10412481;28;20200;-76
2023/09/11 07:03:56;;;;;;;9.68;6.68;;;;;;;-145.68;56.11;72412.59;10427788;28;20203;-73
2023/09/11 07:08:56;;;;;;;8.15;6.70;;;;;;;-145.68;55.45;72380.63;10426797;28;20192;-75
2023/09/11 07:13:57;;;;;;;8.27;6.30;;;;;;;-145.68;53.96;72276.72;10411454;28;20235;-76
2023/09/11 07:18:58;;;;;;;7.38;6.32;;;;;;;-145.68;53.44;72296.69;10423657;28;20656;-76
2023/09/11 07:23:58;;;;;;;8.10;6.18;;;;;;;-145.68;51.35;72196.78;10421482;28;20192;-76
2023/09/11 07:29:02;;;;;;;9.32;6.63;;;;;;;-145.68;50.41;72184.81;10401826;28;20196;-76
2023/09/11 07:34:03;;;;;;;9.77;6.40;;;;;;;-145.68;49.80;72180.81;10385237;28;20769;-76
2023/09/11 07:39:03;;;;;;;9.02;5.88;;;;;;;-145.68;47.90;72076.91;10402643;28;20196;-76
2023/09/11 07:44:04;;;;;;;7.82;6.68;;;;;;;-145.68;45.96;72012.97;10415577;28;20194;-76
2023/09/11 07:49:04;;;;;;;9.55;6.00;;;;;;;-145.68;45.11;71905.06;10411688;28;20802;-76
2023/09/11 07:54:04;;;;;;;10.27;6.03;;;;;;;-145.68;43.47;71939.03;10427342;28;20211;-76
2023/09/11 07:59:05;;;;;;;12.48;6.10;;;;;;;-145.68;42.50;71897.09;10410221;28;20200;-77
2023/09/11 08:04:05;;;;;;;9.70;6.15;;;;;;;-145.68;42.07;71971.00;10393374;28;20187;-77
2023/09/11 08:09:06;;;;;;;5.57;5.07;;;;;;;-145.68;40.54;71825.16;10428778;28;20680;-77
2023/09/11 08:14:07;;;;;;;8.95;5.97;;;;;;;-145.68;39.82;71729.25;10424313;28;20226;-76
2023/09/11 08:19:07;;;;;;;9.10;5.28;;;;;;;-145.68;37.16;71693.28;10427734;28;20215;-74
2023/09/11 08:24:07;;;;;;;5.97;5.20;;;;;;;-145.68;36.26;71603.38;10429102;28;20191;-75
2023/09/11 08:29:10;;;;;;;6.53;5.38;;;;;;;-145.68;37.79;71645.34;10399578;28;20664;-75
2023/09/11 08:34:11;;;;;;;8.63;5.70;;;;;;;-145.68;38.24;71851.13;10425013;28;20235;-75
2023/09/11 08:39:11;;;;;;;9.30;5.20;;;;;;;-145.68;37.96;71755.22;10416957;28;20259;-75
2023/09/11 08:44:12;;;;;;;6.35;5.22;;;;;;;-145.68;37.28;71681.31;10418148;28;20195;-76
2023/09/11 08:49:16;;;;;;;9.70;5.13;;;;;;;-145.68;37.35;71631.34;10400033;28;20266;-75
2023/09/11 08:54:17;;;;;;;8.07;5.60;;;;;;;-145.68;34.43;71319.72;10384214;28;20664;-77
2023/09/11 08:59:17;;;;;;;5.88;5.05;;;;;;;-145.68;33.30;71347.66;10394650;28;20202;-77
2023/09/11 09:04:18;;;;;;;7.55;5.35;;;;;;;-145.68;36.67;71583.41;10395389;28;20184;-76
2023/09/11 09:09:19;;;;;;;7.38;5.53;;;;;;;-145.68;35.39;71497.50;10418943;28;20188;-76
2023/09/11 09:14:20;;;;;;;6.32;4.82;;;;;;;-145.68;35.22;71413.59;10422919;28;20214;-76
2023/09/11 09:19:20;;;;;;;10.30;5.30;;;;;;;-145.68;37.30;71629.38;10423327;28;20233;-76
2023/09/11 09:24:20;;;;;;;6.45;5.43;;;;;;;-145.68;38.79;71801.19;10411071;28;20635;-77
2023/09/11 09:29:21;;;;;;;9.35;5.65;;;;;;;-145.68;38.78;71669.31;10420706;28;20188;-76
2023/09/11 09:34:21;;;;;;;6.43;5.73;;;;;;;-145.68;37.81;71593.41;10429588;28;20303;-76
2023/09/11 09:39:24;;;;;;;8.05;5.63;;;;;;;-145.68;35.20;71331.69;10407913;28;20973;-77
2023/09/11 09:44:30;;;;;;;8.27;5.93;;;;;;;-145.68;38.06;71647.34;10422491;28;20652;-76
2023/09/11 09:49:42;;;;;;;8.50;5.90;;;;;;;-145.68;38.82;71669.31;10408502;28;20236;-77
2023/09/11 09:54:54;;;;;;;7.95;5.35;;;;;;;-145.68;38.78;71665.31;10408647;28;20228;-76
2023/09/11 09:59:58;;;;;;;7.63;5.78;;;;;;;-145.68;36.57;71413.59;10406529;28;20200;-77
2023/09/11 10:05:02;;;;;;;6.35;4.80;;;;;;;-145.68;34.78;71165.88;10406776;28;20197;-77
2023/09/11 10:10:20;;;;;;;8.23;5.15;;;;;;;-145.68;33.72;71203.84;10404444;28;20193;-76
2023/09/11 10:15:22;;;;;;;8.70;5.30;;;;;;;-145.68;33.25;71068.00;10390448;28;20297;-76
2023/09/11 10:20:24;;;;;;;6.35;4.95;;;;;;;-145.68;32.02;70840.28;10385994;28;20208;-76
2023/09/11 10:25:26;;;;;;;7.15;5.45;;;;;;;-145.68;32.02;70898.22;10406080;28;20279;-77
2023/09/11 10:30:32;;;;;;;8.43;5.20;;;;;;;-145.68;30.19;70710.44;10389677;28;20375;-77
2023/09/11 10:35:38;;;;;;;5.78;5.18;;;;;;;-145.68;32.56;71044.03;10387346;28;20206;-77
2023/09/11 10:40:39;;;;;;;8.55;5.15;;;;;;;-145.68;33.67;71093.97;10409102;28;20192;-76
2023/09/11 10:46:13;;;;;;;6.88;5.57;;;;;;;-145.68;32.77;71060.00;10396319;28;20562;-77
2023/09/11 10:51:14;;;;;;;5.05;4.55;;;;;;;-145.68;31.37;70848.28;10412978;28;20218;-76
2023/09/11 10:56:15;;;;;;;7.38;5.30;;;;;;;-145.68;30.23;70734.41;10400553;28;20192;-76
2023/09/11 11:01:16;;;;;;;4.93;4.43;;;;;;;-145.68;30.19;70660.53;10406471;28;20195;-77
2023/09/11 11:06:18;;;;;;;10.30;5.10;;;;;;;-145.68;30.69;70802.34;10429560;28;20242;-77
2023/09/11 11:11:29;;;;;;;7.85;5.10;;;;;;;-145.68;31.03;70830.28;10424817;28;20229;-77
2023/09/11 11:16:30;;;;;;;6.93;5.20;;;;;;;-145.68;31.60;70966.13;10416901;28;20195;-78
2023/09/11 11:21:39;;;;;;;9.13;4.93;;;;;;;-145.68;31.22;70752.41;10410442;28;20226;-78
2023/09/11 11:32:46;;;;;;;8.10;4.85;;;;;;;-145.68;28.87;70482.75;10425309;28;20585;-78
2023/09/11 11:37:47;;;;;;;5.07;4.45;;;;;;;-145.68;28.51;70398.88;10405426;28;20283;-77
2023/09/11 11:42:48;;;;;;;4.97;4.50;;;;;;;-145.68;29.37;70546.66;10416500;28;20188;-78
2023/09/11 11:47:49;;;;;;;5.50;4.57;;;;;;;-145.68;28.60;70430.81;10401865;28;20640;-78
2023/09/11 11:52:49;;;;;;;5.40;4.90;;;;;;;-145.68;28.80;70418.84;10386457;28;20266;-78
2023/09/11 11:57:53;;;;;;;6.23;5.10;;;;;;;-145.68;28.12;70398.88;10408516;28;20717;-78
2023/09/11 12:03:02;;;;;;;7.18;5.30;;;;;;;-145.68;33.12;71199.84;10420170;28;20456;-77
2023/09/11 12:08:03;;;;;;;8.77;5.28;;;;;;;-145.68;31.23;70964.13;10413641;28;20196;-77
2023/09/11 12:13:03;;;;;;;6.70;5.20;;;;;;;-145.68;29.69;70572.63;10393273;28;20219;-77
2023/09/11 12:18:04;;;;;;;5.45;4.93;;;;;;;-145.68;30.36;70844.28;10393438;28;20184;-77
2023/09/11 12:23:04;;;;;;;5.93;5.25;;;;;;;-145.68;29.22;70800.34;10413344;28;20188;-77
2023/09/11 12:28:05;;;;;;;7.43;5.17;;;;;;;-145.68;31.01;71036.03;10412829;28;20188;-76
2023/09/11 12:33:08;;;;;;;7.82;4.95;;;;;;;-145.68;32.48;71221.81;10417604;28;20477;-77
2023/09/11 12:38:10;;;;;;;9.05;5.30;;;;;;;-145.68;32.60;71159.91;10414023;28;20196;-76
2023/09/11 12:43:11;;;;;;;5.82;4.80;;;;;;;-145.68;31.92;71107.94;10429538;28;20649;-77
2023/09/11 12:48:12;;;;;;;6.30;5.05;;;;;;;-145.68;31.21;71058.00;10421877;28;20232;-77
2023/09/11 12:53:12;;;;;;;7.38;4.93;;;;;;;-145.68;29.73;70722.44;10414804;28;20217;-79
2023/09/11 12:58:12;;;;;;;5.72;4.50;;;;;;;-145.68;28.70;70618.56;10415577;28;20200;-78
2023/09/11 13:03:13;;;;;;;6.07;4.88;;;;;;;-145.68;30.11;70960.13;10425814;28;20188;-78
2023/09/11 13:08:16;;;;;;;6.57;5.30;;;;;;;-145.68;31.46;71125.94;10395540;28;20251;-78
2023/09/11 13:13:17;;;;;;;6.50;4.55;;;;;;;-145.68;28.93;70716.44;10402063;28;20208;-78
2023/09/11 13:18:17;;;;;;;6.00;4.40;;;;;;;-145.68;27.55;70568.63;10416648;28;20184;-78
2023/09/11 13:23:18;;;;;;;6.57;4.97;;;;;;;-145.68;28.63;70796.34;10419906;28;20191;-78
2023/09/11 13:28:18;;;;;;;6.17;4.40;;;;;;;-145.68;28.60;70702.47;10416821;28;20492;-78
2023/09/11 13:33:18;;;;;;;6.40;4.38;;;;;;;-145.68;28.25;70698.47;10421696;28;20470;-78
2023/09/11 13:38:19;;;;;;;7.43;4.53;;;;;;;-145.68;27.37;70398.88;10425286;28;20258;-78
2023/09/11 13:43:19;;;;;;;8.73;4.22;;;;;;;-145.68;26.51;70330.97;10416616;28;20445;-78
2023/09/11 13:48:20;;;;;;;8.60;4.50;;;;;;;-145.68;29.79;70962.13;10412236;28;20236;-78
2023/09/11 13:53:20;;;;;;;5.07;4.57;;;;;;;-145.68;28.71;70800.34;10407711;28;20474;-77
2023/09/11 13:58:21;;;;;;;7.53;4.47;;;;;;;-145.68;30.24;71034.03;10410757;28;20458;-77
2023/09/11 14:03:21;;;;;;;5.45;4.45;;;;;;;-145.68;27.78;70706.47;10412511;28;20196;-77
2023/09/11 14:08:21;;;;;;;8.80;4.20;;;;;;;-145.68;27.13;70540.69;10401473;28;20198;-77
2023/09/11 14:13:23;;;;;;;23.60;17.23;;;;;;;-145.68;27.26;70470.78;10401941;28;20470;-77
2023/09/11 14:18:23;;;;;;;8.32;5.72;;;;;;;-145.68;26.86;70484.75;10406372;28;20846;-77
2023/09/11 14:23:24;;;;;;;6.80;4.50;;;;;;;-145.68;27.67;70566.66;10407658;28;20196;-77
2023/09/11 14:28:24;;;;;;;6.23;4.20;;;;;;;-145.68;26.54;70322.97;10413973;28;20184;-77
2023/09/11 14:33:25;;;;;;;11.13;7.80;;;;;;;-145.68;27.29;70332.97;10410474;28;20536;-77
2023/09/11 14:38:25;;;;;;;15.88;12.55;;;;;;;-145.68;25.57;70117.28;10403589;28;20438;-77
2023/09/11 14:43:25;;;;;;;11.83;7.37;;;;;;;-145.68;25.42;69993.44;10404268;28;20219;-77
2023/09/11 14:48:26;;;;;;;32.50;20.63;;;;;;;-145.68;24.81;69895.59;10403893;28;21263;-77
2023/09/11 14:59:49;;;;;;;5.28;4.15;;;;;;;-145.68;27.70;70678.50;10406105;28;20192;-77
2023/09/11 15:04:50;;;;;;;21.48;12.23;;;;;;;-145.68;26.08;70291.03;10405772;28;20659;-77
2023/09/11 15:09:51;;;;;;;20.60;15.65;;;;;;;-145.68;25.01;70165.19;10405429;28;20562;-78
2023/09/11 15:14:51;;;;;;;14.73;8.48;;;;;;;-145.68;25.02;70123.25;10406069;28;20208;-79
2023/09/11 15:19:51;;;;;;;7.60;5.37;;;;;;;-145.68;24.31;70009.44;10409564;28;20191;-77
2023/09/11 15:24:52;;;;;;;5.40;4.00;;;;;;;-145.68;24.80;70019.41;10410403;28;20575;-77
2023/09/11 15:29:52;;;;;;;7.70;3.70;;;;;;;-145.68;24.31;70051.38;10405241;28;20445;-77
2023/09/11 15:34:53;;;;;;;6.13;4.27;;;;;;;-145.68;24.01;69959.50;10404731;28;20234;-78
2023/09/11 15:39:53;;;;;;;4.33;3.67;;;;;;;-145.68;24.51;70099.28;10403956;28;20457;-77
2023/09/11 15:44:53;;;;;;;6.83;3.60;;;;;;;-145.68;24.20;69967.50;10405503;28;20198;-77
2023/09/11 15:49:54;;;;;;;7.45;3.88;;;;;;;-145.68;24.08;69995.44;10403139;28;20589;-77
2023/09/11 15:54:54;;;;;;;3.90;3.60;;;;;;;-145.68;24.19;69955.50;10403652;28;20215;-77
2023/09/11 15:59:55;;;;;;;5.23;3.80;;;;;;;-145.68;24.71;70023.41;10405080;28;20223;-77
2023/09/11 16:04:55;;;;;;;5.07;3.63;;;;;;;-145.68;24.71;70089.31;10406435;28;20192;-77
2023/09/11 16:09:55;;;;;;;7.27;4.00;;;;;;;-145.68;26.44;70309.00;10403281;28;20200;-77
2023/09/11 16:14:56;;;;;;;5.50;3.90;;;;;;;-145.68;26.50;70255.06;10411223;28;20853;-77
2023/09/11 16:19:56;;;;;;;5.88;4.25;;;;;;;-145.68;27.29;70386.88;10417277;28;20449;-77
2023/09/11 16:24:57;;;;;;;8.57;4.73;;;;;;;-145.68;28.24;70534.69;10417780;28;20198;-77
2023/09/11 16:29:57;;;;;;;4.80;4.30;;;;;;;-145.68;30.75;70816.31;10417809;28;20438;-77
2023/09/11 16:34:58;;;;;;;9.37;4.40;;;;;;;-145.68;33.90;71105.97;10417250;28;20485;-77
2023/09/11 16:39:58;;;;;;;5.72;4.45;;;;;;;-145.68;37.32;71485.53;10417268;28;20949;-77
2023/09/11 16:44:59;;;;;;;11.18;4.82;;;;;;;-145.68;39.81;71597.41;10417422;28;20196;-77
2023/09/11 16:49:59;;;;;;;10.95;5.60;;;;;;;-145.68;42.20;71825.16;10416160;28;20252;-77
2023/09/11 16:54:59;;;;;;;9.00;5.65;;;;;;;-145.68;44.58;72006.97;10421410;28;20227;-76
2023/09/11 17:00:04;;;;;;;12.65;6.43;;;;;;;-145.68;46.21;72012.97;10416172;28;20195;-76
2023/09/11 17:05:09;;;;;;;8.30;5.75;;;;;;;-145.68;47.24;72026.97;10417276;28;20645;-76
2023/09/11 17:10:10;;;;;;;8.00;5.90;;;;;;;-145.68;48.13;72090.91;10416128;28;20580;-76
2023/09/11 17:15:11;;;;;;;8.10;5.95;;;;;;;-145.68;49.46;72148.84;10416822;28;20216;-76
2023/09/11 17:20:15;;;;;;;11.23;7.03;;;;;;;-145.68;52.66;72266.72;10417224;28;20673;-76
2023/09/11 17:25:18;;;;;;;12.00;6.72;;;;;;;-145.68;53.37;72230.75;10413761;28;20594;-77
2023/09/11 17:30:19;;;;;;;12.73;7.50;;;;;;;-145.68;53.51;72248.75;10409932;28;20684;-76
2023/09/11 17:35:19;;;;;;;10.85;6.82;;;;;;;-145.68;53.99;72316.69;10391814;28;20224;-75
2023/09/11 17:40:19;;;;;;;10.60;6.93;;;;;;;-145.68;55.23;72336.66;10409604;28;20216;-76
2023/09/11 17:45:20;;;;;;;7.97;6.70;;;;;;;-145.68;56.48;72404.59;10410024;28;20195;-76
2023/09/11 17:50:20;;;;;;;12.82;7.20;;;;;;;-145.68;56.90;72402.59;10389057;28;20259;-76
2023/09/11 17:55:21;;;;;;;11.75;7.50;;;;;;;-145.68;57.09;72408.59;10408541;28;20755;-76
2023/09/11 18:00:25;;;;;;;10.50;7.90;;;;;;;-145.68;58.38;72434.59;10395074;28;20582;-75
2023/09/11 18:05:27;;;;;;;10.57;7.57;;;;;;;-145.68;59.53;72480.53;10390443;28;20189;-76
2023/09/11 18:10:27;;;;;;;8.35;7.10;;;;;;;-145.68;59.94;72486.53;10407673;28;20200;-77
2023/09/11 18:15:28;;;;;;;11.60;7.80;;;;;;;-145.68;59.94;72480.53;10389435;28;20217;-75
2023/09/11 18:20:28;;;;;;;10.45;8.70;;;;;;;-145.68;60.44;72500.53;10405893;28;20557;-76
2023/09/11 18:25:30;;;;;;;13.68;9.25;;;;;;;-145.68;61.42;72518.50;10406966;28;20191;-76
2023/09/11 18:30:30;;;;;;;9.88;7.85;;;;;;;-145.68;62.39;72532.50;10388751;28;20185;-75
2023/09/11 18:35:31;;;;;;;14.15;8.30;;;;;;;-145.68;64.82;72584.44;10406484;28;20223;-76
2023/09/11 18:40:31;;;;;;;12.13;8.55;;;;;;;-145.68;65.82;72608.44;10404657;28;20192;-76
2023/09/11 18:45:32;;;;;;;15.73;12.38;;;;;;;-145.68;66.60;72624.41;10406187;28;20196;-76
2023/09/11 18:50:32;;;;;;;12.50;9.57;;;;;;;-145.68;67.73;72644.41;10405093;28;20239;-76
2023/09/11 18:55:33;;;;;;;17.50;10.38;;;;;;;-145.68;68.37;72658.38;10406151;28;20711;-76
2023/09/11 19:00:33;;;;;;;18.10;9.85;;;;;;;-145.68;69.55;72676.38;10386782;28;20653;-76
2023/09/11 19:05:33;;;;;;;15.77;11.07;;;;;;;-145.68;70.90;72688.38;10388034;28;20192;-76
2023/09/11 19:10:34;;;;;;;15.80;9.43;;;;;;;-145.68;71.83;72692.38;10405258;28;20203;-76
2023/09/11 19:15:34;;;;;;;11.57;10.10;;;;;;;-145.68;72.55;72708.34;10404502;28;20688;-76
2023/09/11 19:20:35;;;;;;;14.52;9.90;;;;;;;-145.68;74.14;72740.31;10404920;28;20193;-76
2023/09/11 19:25:35;;;;;;;11.88;10.00;;;;;;;-145.68;75.47;72748.31;10408382;28;20200;-76
2023/09/11 19:30:36;;;;;;;65.53;45.17;;;;;;;-145.68;76.81;72772.31;10404161;28;20727;-76
2023/09/11 19:35:36;;;;;;;14.55;10.45;;;;;;;-145.68;78.14;72790.28;10386689;28;20216;-76
2023/09/11 19:40:37;;;;;;;12.70;10.10;;;;;;;-145.68;78.90;72804.28;10403814;28;20305;-76
2023/09/11 19:45:37;;;;;;;17.17;11.30;;;;;;;-145.68;80.59;72826.25;10403582;28;20181;-76
2023/09/11 19:50:38;;;;;;;15.65;11.60;;;;;;;-145.68;82.45;72840.25;10403312;28;20232;-76
2023/09/11 19:55:39;;;;;;;19.40;10.77;;;;;;;-145.68;83.37;72856.22;10403917;28;20692;-76
2023/09/11 20:00:40;;;;;;;15.85;10.90;;;;;;;-145.68;83.88;72852.25;10402857;28;20199;-76
2023/09/11 20:05:40;;;;;;;11.43;10.23;;;;;;;-145.68;84.75;72852.25;10403301;28;20208;-76
2023/09/11 20:10:40;;;;;;;13.80;10.38;;;;;;;-145.68;85.45;72872.22;10403883;28;20571;-76
2023/09/11 20:15:41;;;;;;;13.15;10.25;;;;;;;-145.68;85.63;72880.22;10401043;28;20563;-76
2023/09/11 20:20:41;;;;;;;17.30;11.00;;;;;;;-145.68;87.77;72900.19;10403294;28;20197;-76
2023/09/11 20:25:42;;;;;;;12.30;9.80;;;;;;;-145.68;88.15;72902.19;10404236;28;20218;-76
2023/09/11 20:30:42;;;;;;;13.35;11.10;;;;;;;-145.68;88.16;72908.19;10403036;28;20673;-76
2023/09/11 20:35:42;;;;;;;16.70;11.23;;;;;;;-145.68;89.27;72920.19;10403515;28;20224;-76
2023/09/11 20:40:43;;;;;;;13.38;10.77;;;;;;;-145.68;89.94;72936.19;10404066;28;20195;-75
2023/09/11 20:45:43;;;;;;;12.05;10.13;;;;;;;-145.68;90.62;72944.16;10402355;28;20193;-76
2023/09/11 20:50:44;;;;;;;13.30;10.52;;;;;;;-145.68;91.94;72956.16;10403440;28;20236;-76
2023/09/11 20:55:44;;;;;;;16.70;10.40;;;;;;;-145.68;92.95;72968.16;10402021;28;20242;-76
2023/09/11 21:00:44;;;;;;;13.30;10.60;;;;;;;-145.68;93.47;72972.16;10409679;28;20219;-75
2023/09/11 21:05:48;;;;;;;11.73;10.55;;;;;;;-145.68;93.81;72984.13;10415548;28;20189;-75
2023/09/11 21:10:49;;;;;;;18.65;11.27;;;;;;;-145.68;93.24;72986.13;10392529;28;20246;-76
2023/09/11 21:15:50;;;;;;;14.07;10.48;;;;;;;-145.68;93.40;72986.13;10410434;28;20196;-76
2023/09/11 21:20:50;;;;;;;14.70;10.45;;;;;;;-145.68;94.73;72996.13;10410448;28;20242;-76
2023/09/11 21:25:50;;;;;;;15.90;11.30;;;;;;;-145.68;95.25;73008.13;10392360;28;20216;-75
2023/09/11 21:30:51;;;;;;;11.60;10.07;;;;;;;-145.68;96.00;73012.13;10410093;28;20203;-75
2023/09/11 21:35:51;;;;;;;14.20;9.95;;;;;;;-145.68;97.53;73026.09;10410671;28;20203;-75
2023/09/11 21:40:53;;;;;;;17.85;10.10;;;;;;;-145.68;97.83;73024.13;10409372;28;20208;-75
2023/09/11 21:45:53;;;;;;;12.65;9.48;;;;;;;-145.68;98.00;73038.09;10390666;28;20204;-76
2023/09/11 21:50:54;;;;;;;13.38;11.13;;;;;;;-145.68;99.08;73032.09;10409093;28;20235;-75
2023/09/11 21:55:54;;;;;;;17.00;12.05;;;;;;;-145.68;100.00;73044.09;10408635;28;20259;-75
2023/09/11 22:00:54;;;;;;;12.15;10.38;;;;;;;-145.68;100.00;73056.09;10391383;28;20192;-76
2023/09/11 22:05:55;;;;;;;14.35;11.95;;;;;;;-145.68;100.00;73062.09;10408483;28;20204;-76
2023/09/11 22:10:56;;;;;;;14.10;11.35;;;;;;;-145.68;100.00;73060.09;10407877;28;20201;-75
2023/09/11 22:15:56;;;;;;;11.60;10.02;;;;;;;-145.68;100.00;73060.09;10408152;28;20212;-75
2023/09/11 22:20:57;;;;;;;15.20;10.55;;;;;;;-145.68;100.00;73070.06;10390379;28;20254;-75
2023/09/11 22:25:58;;;;;;;17.40;11.98;;;;;;;-145.68;100.00;73076.06;10407449;28;20627;-75
2023/09/11 22:30:58;;;;;;;16.23;11.65;;;;;;;-145.68;100.00;73096.06;10407692;28;20192;-75
2023/09/11 22:35:58;;;;;;;14.00;11.85;;;;;;;-145.68;100.00;73100.06;10407560;28;20610;-76
2023/09/11 22:40:59;;;;;;;12.50;11.15;;;;;;;-145.68;100.00;73104.06;10406948;28;20196;-75
2023/09/11 22:46:03;;;;;;;13.88;12.40;;;;;;;-145.68;100.00;73094.06;10406912;28;20544;-75